createdAt,value
2019-03-03T00:00:19.626Z,39.20
2019-03-03T00:02:48.053Z,40.20
2019-03-03T00:05:16.510Z,40.15
2019-03-03T00:07:44.938Z,40.52
2019-03-03T00:10:13.484Z,40.50
2019-03-03T00:12:41.946Z,41.10
2019-03-03T00:15:11.825Z,42.95
2019-03-03T00:17:40.258Z,42.85
2019-03-03T00:20:14.037Z,43.68
2019-03-03T00:22:42.472Z,42.10
2019-03-03T00:25:13.008Z,41.98
2019-03-03T00:27:41.446Z,40.75
2019-03-03T00:30:17.787Z,42.70
2019-03-03T00:32:46.224Z,42.08
2019-03-03T00:35:15.052Z,40.60
2019-03-03T00:38:01.805Z,41.00
2019-03-03T00:40:37.796Z,42.67
2019-03-03T00:43:16.665Z,41.55
2019-03-03T00:46:04.833Z,40.25
2019-03-03T00:48:51.478Z,41.70
2019-03-03T00:51:21.570Z,39.75
2019-03-03T00:54:06.369Z,40.55
2019-03-03T00:56:42.545Z,40.83
2019-03-03T00:59:12.618Z,38.67
2019-03-03T01:01:48.753Z,39.50
2019-03-03T01:04:21.543Z,38.20
2019-03-03T01:06:51.656Z,37.78
2019-03-03T01:09:23.925Z,39.10
2019-03-03T01:12:12.493Z,38.85
2019-03-03T01:14:54.885Z,36.98
2019-03-03T01:17:25.016Z,39.33
2019-03-03T01:20:00.840Z,37.30
2019-03-03T01:22:33.688Z,36.90
2019-03-03T01:25:02.122Z,37.45
2019-03-03T01:27:30.574Z,36.20
2019-03-03T01:29:59.019Z,36.08
2019-03-03T01:32:27.473Z,37.10
2019-03-03T01:34:55.893Z,36.65
2019-03-03T01:37:24.329Z,36.50
2019-03-03T01:39:53.042Z,35.65
2019-03-03T01:42:21.503Z,35.80
2019-03-03T01:44:49.956Z,35.20
2019-03-03T01:47:18.429Z,34.10
2019-03-03T01:49:46.873Z,34.48
2019-03-03T01:52:15.311Z,34.48
2019-03-03T01:54:43.736Z,35.03
2019-03-03T01:57:12.173Z,32.65
2019-03-03T01:59:40.592Z,33.28
2019-03-03T02:02:09.069Z,31.93
2019-03-03T02:04:37.489Z,30.45
2019-03-03T02:07:05.933Z,30.48
2019-03-03T02:09:34.371Z,30.05
2019-03-03T02:12:02.870Z,27.10
2019-03-03T02:14:31.296Z,28.60
2019-03-03T02:16:59.836Z,27.50
2019-03-03T02:19:28.265Z,27.60
2019-03-03T02:21:56.792Z,26.75
2019-03-03T02:24:25.257Z,27.73
2019-03-03T02:26:53.734Z,28.30
2019-03-03T02:29:22.172Z,25.30
2019-03-03T02:31:50.614Z,27.10
2019-03-03T02:34:19.066Z,26.90
2019-03-03T02:36:47.499Z,26.73
2019-03-03T02:39:16.519Z,26.60
2019-03-03T02:41:45.030Z,27.13
2019-03-03T02:44:13.466Z,27.07
2019-03-03T02:46:41.933Z,27.23
2019-03-03T02:49:10.443Z,26.13
2019-03-03T02:51:38.873Z,26.17
2019-03-03T02:54:07.322Z,26.60
2019-03-03T02:56:35.779Z,24.35
2019-03-03T02:59:04.475Z,24.02
2019-03-03T03:01:34.568Z,22.95
2019-03-03T03:04:03.020Z,23.35
2019-03-03T03:06:35.818Z,22.17
2019-03-03T03:09:08.634Z,22.87
2019-03-03T03:11:50.977Z,21.57
2019-03-03T03:14:37.677Z,20.62
2019-03-03T03:17:22.758Z,19.95
2019-03-03T03:19:58.577Z,18.55
2019-03-03T03:22:31.328Z,18.65
2019-03-03T03:25:01.525Z,22.65
2019-03-03T03:27:31.938Z,18.75
2019-03-03T03:30:08.642Z,20.08
2019-03-03T03:32:44.778Z,18.87
2019-03-03T03:35:23.391Z,18.87
2019-03-03T03:37:53.465Z,22.90
2019-03-03T03:40:35.432Z,17.80
2019-03-03T03:43:17.750Z,18.92
2019-03-03T03:45:53.748Z,17.37
2019-03-03T03:48:33.050Z,16.05
2019-03-03T03:51:06.134Z,17.57
2019-03-03T03:53:45.226Z,19.80
2019-03-03T03:56:15.674Z,16.02
2019-03-03T03:58:48.823Z,15.58
2019-03-03T04:01:37.320Z,14.20
2019-03-03T04:04:07.425Z,16.27
2019-03-03T04:06:40.490Z,15.83
2019-03-03T04:09:13.658Z,11.95
2019-03-03T04:11:49.532Z,11.17
2019-03-03T04:14:19.638Z,13.13
2019-03-03T04:16:55.582Z,13.30
2019-03-03T04:19:25.718Z,14.13
2019-03-03T04:21:56.155Z,15.58
2019-03-03T04:24:32.176Z,13.13
2019-03-03T04:27:20.274Z,11.95
2019-03-03T04:29:50.389Z,11.45
2019-03-03T04:32:20.467Z,13.48
2019-03-03T04:34:52.955Z,16.20
2019-03-03T04:37:38.117Z,14.73
2019-03-03T04:40:14.861Z,15.48
2019-03-03T04:42:50.622Z,13.20
2019-03-03T04:45:23.396Z,12.57
2019-03-03T04:48:02.512Z,13.45
2019-03-03T04:50:35.652Z,11.50
2019-03-03T04:53:14.433Z,11.53
2019-03-03T04:55:56.503Z,13.95
2019-03-03T04:58:43.074Z,16.07
2019-03-03T05:01:16.195Z,12.10
2019-03-03T05:03:46.280Z,14.53
2019-03-03T05:06:19.133Z,12.90
2019-03-03T05:08:52.147Z,11.83
2019-03-03T05:11:41.766Z,16.12
2019-03-03T05:14:11.850Z,14.23
2019-03-03T05:16:41.965Z,14.30
2019-03-03T05:19:10.417Z,13.53
2019-03-03T05:21:38.864Z,14.10
2019-03-03T05:24:07.289Z,12.05
2019-03-03T05:26:35.729Z,13.88
2019-03-03T05:29:04.162Z,18.52
2019-03-03T05:31:32.645Z,11.85
2019-03-03T05:34:01.076Z,17.10
2019-03-03T05:36:29.507Z,15.05
2019-03-03T05:38:57.943Z,16.20
2019-03-03T05:41:26.378Z,13.70
2019-03-03T05:43:55.150Z,13.58
2019-03-03T05:46:23.587Z,17.10
2019-03-03T05:48:52.037Z,15.45
2019-03-03T05:51:20.472Z,16.35
2019-03-03T05:53:48.906Z,16.48
2019-03-03T05:56:18.946Z,15.90
2019-03-03T05:58:47.586Z,15.05
2019-03-03T06:01:16.000Z,18.35
2019-03-03T06:03:44.456Z,14.95
2019-03-03T06:06:12.891Z,15.38
2019-03-03T06:08:41.341Z,17.00
2019-03-03T06:11:10.065Z,15.00
2019-03-03T06:13:38.513Z,14.65
2019-03-03T06:16:06.941Z,17.27
2019-03-03T06:18:35.392Z,20.95
2019-03-03T06:21:03.848Z,17.70
2019-03-03T06:23:32.577Z,22.95
2019-03-03T06:26:01.734Z,19.67
2019-03-03T06:28:30.189Z,20.43
2019-03-03T06:30:58.618Z,20.08
2019-03-03T06:33:27.058Z,18.65
2019-03-03T06:35:55.487Z,19.73
2019-03-03T06:38:23.944Z,20.40
2019-03-03T06:40:52.371Z,21.95
2019-03-03T06:43:20.799Z,20.55
2019-03-03T06:45:49.248Z,21.12
2019-03-03T06:48:17.692Z,19.92
2019-03-03T06:50:46.109Z,19.50
2019-03-03T06:53:14.562Z,20.35
2019-03-03T06:55:42.989Z,18.40
2019-03-03T06:58:11.440Z,19.03
2019-03-03T07:00:39.874Z,18.55
2019-03-03T07:03:08.324Z,16.82
2019-03-03T07:05:36.766Z,18.98
2019-03-03T07:08:05.281Z,16.90
2019-03-03T07:10:33.721Z,17.20
2019-03-03T07:13:02.164Z,17.43
2019-03-03T07:15:30.656Z,18.30
2019-03-03T07:17:59.092Z,19.00
2019-03-03T07:20:27.534Z,17.87
2019-03-03T07:22:55.965Z,18.12
2019-03-03T07:25:24.418Z,18.52
2019-03-03T07:27:52.841Z,17.57
2019-03-03T07:30:21.277Z,17.40
2019-03-03T07:32:54.262Z,17.87
2019-03-03T07:35:22.721Z,17.62
2019-03-03T07:37:51.169Z,18.00
2019-03-03T07:40:19.633Z,17.90
2019-03-03T07:42:48.076Z,18.77
2019-03-03T07:45:16.535Z,19.02
2019-03-03T07:47:45.321Z,18.70
2019-03-03T07:50:13.749Z,18.40
2019-03-03T07:52:42.199Z,18.07
2019-03-03T07:55:11.095Z,18.40
2019-03-03T07:57:39.586Z,17.05
2019-03-03T08:00:18.402Z,20.60
2019-03-03T08:02:46.939Z,23.67
2019-03-03T08:05:15.355Z,17.40
2019-03-03T08:07:43.801Z,17.55
2019-03-03T08:10:13.885Z,16.25
2019-03-03T08:12:42.336Z,16.73
2019-03-03T08:15:15.432Z,15.78
2019-03-03T08:17:44.334Z,15.98
2019-03-03T08:20:13.740Z,15.90
2019-03-03T08:22:42.236Z,15.60
2019-03-03T08:25:11.652Z,16.55
2019-03-03T08:27:40.080Z,14.95
2019-03-03T08:30:11.600Z,16.15
2019-03-03T08:32:40.982Z,16.25
2019-03-03T08:35:15.068Z,16.17
2019-03-03T08:37:43.505Z,17.37
2019-03-03T08:40:11.998Z,15.93
2019-03-03T08:42:50.937Z,15.70
2019-03-03T08:45:32.995Z,16.50
2019-03-03T08:48:05.715Z,15.93
2019-03-03T08:50:48.021Z,16.57
2019-03-03T08:53:21.041Z,16.20
2019-03-03T08:56:07.627Z,15.83
2019-03-03T08:58:56.035Z,17.55
2019-03-03T09:01:44.807Z,17.05
2019-03-03T09:04:14.870Z,16.10
2019-03-03T09:06:44.936Z,15.63
2019-03-03T09:09:24.813Z,15.80
2019-03-03T09:12:01.027Z,15.63
2019-03-03T09:14:46.357Z,15.63
2019-03-03T09:17:16.840Z,17.15
2019-03-03T09:19:58.928Z,15.20
2019-03-03T09:22:35.194Z,15.63
2019-03-03T09:25:09.023Z,15.93
2019-03-03T09:27:54.221Z,14.70
2019-03-03T09:30:42.352Z,16.03
2019-03-03T09:33:12.441Z,14.38
2019-03-03T09:35:45.380Z,15.13
2019-03-03T09:38:15.477Z,14.25
2019-03-03T09:40:57.842Z,14.00
2019-03-03T09:43:27.929Z,14.25
2019-03-03T09:45:59.130Z,12.95
2019-03-03T09:48:29.300Z,12.70
2019-03-03T09:50:59.369Z,14.18
2019-03-03T09:53:47.153Z,12.65
2019-03-03T09:56:26.150Z,13.43
2019-03-03T09:59:05.466Z,12.47
2019-03-03T10:01:44.856Z,13.10
2019-03-03T10:04:17.617Z,11.80
2019-03-03T10:06:53.669Z,12.75
2019-03-03T10:09:29.446Z,12.10
2019-03-03T10:11:59.526Z,12.80
2019-03-03T10:14:29.610Z,12.13
2019-03-03T10:16:59.686Z,12.70
2019-03-03T10:19:35.591Z,12.45
2019-03-03T10:22:05.703Z,13.43
2019-03-03T10:24:35.780Z,13.13
2019-03-03T10:27:05.945Z,13.60
2019-03-03T10:29:45.171Z,13.65
2019-03-03T10:32:15.266Z,14.30
2019-03-03T10:34:45.341Z,14.50
2019-03-03T10:37:33.694Z,15.40
2019-03-03T10:40:06.662Z,14.38
2019-03-03T10:42:45.737Z,14.78
2019-03-03T10:45:15.821Z,15.58
2019-03-03T10:47:48.841Z,14.40
2019-03-03T10:50:18.920Z,14.50
2019-03-03T10:52:55.173Z,15.40
2019-03-03T10:55:33.960Z,16.52
2019-03-03T10:58:04.065Z,14.65
2019-03-03T11:00:50.537Z,15.50
2019-03-03T11:03:20.621Z,14.95
2019-03-03T11:06:06.940Z,13.90
2019-03-03T11:08:36.996Z,14.33
2019-03-03T11:11:10.270Z,14.03
2019-03-03T11:13:43.880Z,15.30
2019-03-03T11:16:30.264Z,15.20
2019-03-03T11:19:16.849Z,15.40
2019-03-03T11:21:49.818Z,16.37
2019-03-03T11:24:22.866Z,15.10
2019-03-03T11:26:52.975Z,15.10
2019-03-03T11:29:23.351Z,14.40
2019-03-03T11:31:53.486Z,13.98
2019-03-03T11:34:38.883Z,13.32
2019-03-03T11:37:08.951Z,13.45
2019-03-03T11:39:47.857Z,12.00
2019-03-03T11:42:17.947Z,12.33
2019-03-03T11:44:53.773Z,11.57
2019-03-03T11:47:23.853Z,10.50
2019-03-03T11:50:02.944Z,11.43
2019-03-03T11:52:48.249Z,11.90
2019-03-03T11:55:35.785Z,10.40
2019-03-03T11:58:05.876Z,10.80
2019-03-03T12:00:52.413Z,10.40
2019-03-03T12:03:25.432Z,10.20
2019-03-03T12:06:07.693Z,10.30
2019-03-03T12:08:46.971Z,9.73
2019-03-03T12:11:19.912Z,10.88
2019-03-03T12:13:56.472Z,10.68
2019-03-03T12:16:26.671Z,10.30
2019-03-03T12:19:01.658Z,11.97
2019-03-03T12:21:47.985Z,12.45
2019-03-03T12:24:36.493Z,12.00
2019-03-03T12:27:06.638Z,11.93
2019-03-03T12:29:42.694Z,12.00
2019-03-03T12:32:14.064Z,12.05
2019-03-03T12:34:47.360Z,11.00
2019-03-03T12:37:20.328Z,10.03
2019-03-03T12:40:06.954Z,11.12
2019-03-03T12:42:39.992Z,10.40
2019-03-03T12:45:10.146Z,10.18
2019-03-03T12:47:52.544Z,9.70
2019-03-03T12:50:37.901Z,10.18
2019-03-03T12:53:10.708Z,10.20
2019-03-03T12:55:49.950Z,10.10
2019-03-03T12:58:23.126Z,9.43
2019-03-03T13:01:09.797Z,9.35
2019-03-03T13:03:42.606Z,9.30
2019-03-03T13:06:24.096Z,9.53
2019-03-03T13:09:04.276Z,9.20
2019-03-03T13:11:38.206Z,9.60
2019-03-03T13:14:20.225Z,9.08
2019-03-03T13:17:03.337Z,9.90
2019-03-03T13:19:33.404Z,9.25
2019-03-03T13:22:06.728Z,9.23
2019-03-03T13:24:36.839Z,10.10
2019-03-03T13:27:24.410Z,10.32
2019-03-03T13:30:00.792Z,11.03
2019-03-03T13:32:34.046Z,10.90
2019-03-03T13:35:13.002Z,10.45
2019-03-03T13:37:46.257Z,10.72
2019-03-03T13:40:16.624Z,10.55
2019-03-03T13:42:52.688Z,11.10
2019-03-03T13:45:21.123Z,10.25
2019-03-03T13:47:49.545Z,11.30
2019-03-03T13:50:18.336Z,9.85
2019-03-03T13:52:46.765Z,8.60
2019-03-03T13:55:16.140Z,11.57
2019-03-03T13:57:44.641Z,9.70
2019-03-03T14:00:21.440Z,9.43
2019-03-03T14:02:50.302Z,8.10
2019-03-03T14:05:20.504Z,8.60
2019-03-03T14:07:48.953Z,9.88
2019-03-03T14:10:17.620Z,9.35
2019-03-03T14:12:46.087Z,9.65
2019-03-03T14:15:17.039Z,8.78
2019-03-03T14:17:45.474Z,8.90
2019-03-03T14:20:17.141Z,8.95
2019-03-03T14:22:45.584Z,8.30
2019-03-03T14:25:15.161Z,7.50
2019-03-03T14:27:43.624Z,7.30
2019-03-03T14:30:20.856Z,7.00
2019-03-03T14:32:49.393Z,8.30
2019-03-03T14:35:17.815Z,7.10
2019-03-03T14:37:46.253Z,6.70
2019-03-03T14:40:17.439Z,6.80
2019-03-03T14:42:45.889Z,6.30
2019-03-03T14:45:16.965Z,6.40
2019-03-03T14:47:45.400Z,6.08
2019-03-03T14:50:16.345Z,6.70
2019-03-03T14:52:46.446Z,7.60
2019-03-03T14:55:17.572Z,7.80
2019-03-03T14:57:46.097Z,7.90
2019-03-03T15:00:24.207Z,6.60
2019-03-03T15:02:53.478Z,6.60
2019-03-03T15:05:22.271Z,6.40
2019-03-03T15:07:50.710Z,6.35
2019-03-03T15:10:19.172Z,6.17
2019-03-03T15:12:47.737Z,7.17
2019-03-03T15:15:24.793Z,7.12
2019-03-03T15:17:53.241Z,8.00
2019-03-03T15:20:22.034Z,7.08
2019-03-03T15:22:50.821Z,7.78
2019-03-03T15:25:19.238Z,7.60
2019-03-03T15:27:47.748Z,7.90
2019-03-03T15:30:21.474Z,8.58
2019-03-03T15:32:50.105Z,9.20
2019-03-03T15:35:18.544Z,9.18
2019-03-03T15:37:47.643Z,9.50
2019-03-03T15:40:18.674Z,9.83
2019-03-03T15:42:47.109Z,9.30
2019-03-03T15:45:27.309Z,8.45
2019-03-03T15:47:56.013Z,8.40
2019-03-03T15:50:24.600Z,9.10
2019-03-03T15:52:53.164Z,10.30
2019-03-03T15:55:26.117Z,12.20
2019-03-03T15:57:54.558Z,10.75
2019-03-03T16:00:31.938Z,10.90
2019-03-03T16:03:00.403Z,11.70
2019-03-03T16:05:28.824Z,12.40
2019-03-03T16:07:57.662Z,12.50
2019-03-03T16:10:27.198Z,13.60
2019-03-03T16:12:55.626Z,14.15
2019-03-03T16:15:24.070Z,13.53
2019-03-03T16:17:52.515Z,13.20
2019-03-03T16:20:24.689Z,13.95
2019-03-03T16:22:53.262Z,13.80
2019-03-03T16:25:25.621Z,13.62
2019-03-03T16:27:54.073Z,13.58
2019-03-03T16:30:23.626Z,14.10
2019-03-03T16:32:52.063Z,14.20
2019-03-03T16:35:20.665Z,14.60
2019-03-03T16:37:49.125Z,14.10
2019-03-03T16:40:23.121Z,14.30
2019-03-03T16:42:51.597Z,12.88
2019-03-03T16:45:20.703Z,13.30
2019-03-03T16:47:49.404Z,13.18
2019-03-03T16:50:19.284Z,12.63
2019-03-03T16:52:48.056Z,13.03
2019-03-03T16:55:17.828Z,11.50
2019-03-03T16:57:46.278Z,11.90
2019-03-03T17:00:23.564Z,11.73
2019-03-03T17:02:51.990Z,12.20
2019-03-03T17:05:29.171Z,10.85
2019-03-03T17:07:57.762Z,12.03
2019-03-03T17:10:26.210Z,11.97
2019-03-03T17:12:55.128Z,12.30
2019-03-03T17:15:24.733Z,13.00
2019-03-03T17:17:53.161Z,13.90
2019-03-03T17:20:21.687Z,16.37
2019-03-03T17:22:50.516Z,13.48
2019-03-03T17:25:23.358Z,13.00
2019-03-03T17:27:51.785Z,13.08
2019-03-03T17:30:22.668Z,12.17
2019-03-03T17:32:51.106Z,13.58
2019-03-03T17:35:19.610Z,13.50
2019-03-03T17:37:48.417Z,13.80
2019-03-03T17:40:18.817Z,12.88
2019-03-03T17:42:47.245Z,13.72
2019-03-03T17:45:17.777Z,12.00
2019-03-03T17:47:46.306Z,13.18
2019-03-03T17:50:19.476Z,12.00
2019-03-03T17:52:47.980Z,13.90
2019-03-03T17:55:17.514Z,14.18
2019-03-03T17:57:46.314Z,14.75
2019-03-03T18:00:24.166Z,15.03
2019-03-03T18:02:52.640Z,14.95
2019-03-03T18:05:21.418Z,16.12
2019-03-03T18:07:50.025Z,15.93
2019-03-03T18:10:18.653Z,15.50
2019-03-03T18:12:47.099Z,14.78
2019-03-03T18:15:16.674Z,14.98
2019-03-03T18:17:45.109Z,16.57
2019-03-03T18:20:15.789Z,17.00
2019-03-03T18:22:44.298Z,16.77
2019-03-03T18:25:15.337Z,16.90
2019-03-03T18:27:43.842Z,16.62
2019-03-03T18:30:21.739Z,18.23
2019-03-03T18:32:50.266Z,17.60
2019-03-03T18:35:18.696Z,17.80
2019-03-03T18:37:47.225Z,17.60
2019-03-03T18:40:17.794Z,16.75
2019-03-03T18:42:46.266Z,16.65
2019-03-03T18:45:17.137Z,16.80
2019-03-03T18:47:45.633Z,17.95
2019-03-03T18:50:19.205Z,19.37
2019-03-03T18:52:47.828Z,19.75
2019-03-03T18:55:16.505Z,18.55
2019-03-03T18:57:45.015Z,18.92
2019-03-03T19:00:22.429Z,20.92
2019-03-03T19:02:51.048Z,19.40
2019-03-03T19:05:19.677Z,20.80
2019-03-03T19:07:48.297Z,19.37
2019-03-03T19:10:18.970Z,20.20
2019-03-03T19:12:47.485Z,18.40
2019-03-03T19:15:18.171Z,20.55
2019-03-03T19:17:46.780Z,18.12
2019-03-03T19:20:17.619Z,20.30
2019-03-03T19:22:46.131Z,18.98
2019-03-03T19:25:15.699Z,18.80
2019-03-03T19:27:44.277Z,19.80
2019-03-03T19:30:15.820Z,20.50
2019-03-03T19:32:44.429Z,21.33
2019-03-03T19:35:13.338Z,21.68
2019-03-03T19:37:41.792Z,21.97
2019-03-03T19:40:13.018Z,21.87
2019-03-03T19:42:41.781Z,23.22
2019-03-03T19:45:25.176Z,21.40
2019-03-03T19:47:53.642Z,22.67
2019-03-03T19:50:22.165Z,21.40
2019-03-03T19:52:50.681Z,23.42
2019-03-03T19:55:19.425Z,24.25
2019-03-03T19:57:48.209Z,24.50
2019-03-03T20:00:39.078Z,23.98
2019-03-03T20:03:07.933Z,24.63
2019-03-03T20:05:36.666Z,24.75
2019-03-03T20:08:06.035Z,25.48
2019-03-03T20:10:34.534Z,25.60
2019-03-03T20:13:02.985Z,25.90
2019-03-03T20:15:31.760Z,26.90
2019-03-03T20:18:00.215Z,25.80
2019-03-03T20:20:29.227Z,27.22
2019-03-03T20:22:57.659Z,27.70
2019-03-03T20:25:26.170Z,26.70
2019-03-03T20:27:54.966Z,28.25
2019-03-03T20:30:24.774Z,28.73
2019-03-03T20:32:54.852Z,28.85
2019-03-03T20:35:23.709Z,28.20
2019-03-03T20:37:52.419Z,28.30
2019-03-03T20:40:27.998Z,29.60
2019-03-03T20:42:56.618Z,30.92
2019-03-03T20:45:31.284Z,30.10
2019-03-03T20:47:59.803Z,30.27
2019-03-03T20:50:28.264Z,30.00
2019-03-03T20:52:56.721Z,30.70
2019-03-03T20:55:29.938Z,31.15
2019-03-03T20:57:58.371Z,31.30
2019-03-03T21:00:31.235Z,30.43
2019-03-03T21:02:59.678Z,30.70
2019-03-03T21:05:28.258Z,29.60
2019-03-03T21:07:56.717Z,28.23
2019-03-03T21:10:29.891Z,29.70
2019-03-03T21:12:58.396Z,31.68
2019-03-03T21:15:26.833Z,28.60
2019-03-03T21:17:55.278Z,30.43
2019-03-03T21:20:24.101Z,28.32
2019-03-03T21:22:52.984Z,30.67
2019-03-03T21:25:21.430Z,30.43
2019-03-03T21:27:49.857Z,26.60
2019-03-03T21:30:25.870Z,25.90
2019-03-03T21:32:54.300Z,27.98
2019-03-03T21:35:22.902Z,24.77
2019-03-03T21:37:51.319Z,24.35
2019-03-03T21:40:27.537Z,25.23
2019-03-03T21:42:56.014Z,24.47
2019-03-03T21:45:29.505Z,23.10
2019-03-03T21:47:58.005Z,22.85
2019-03-03T21:50:28.554Z,22.30
2019-03-03T21:52:56.990Z,21.40
2019-03-03T21:55:25.566Z,21.23
2019-03-03T21:57:54.002Z,21.57
2019-03-03T22:00:33.367Z,20.85
2019-03-03T22:03:01.857Z,20.68
2019-03-03T22:05:30.309Z,21.23
2019-03-03T22:07:58.737Z,20.62
2019-03-03T22:10:30.828Z,19.57
2019-03-03T22:13:01.669Z,19.00
2019-03-03T22:15:30.179Z,20.35
2019-03-03T22:17:58.618Z,17.32
2019-03-03T22:20:27.085Z,19.02
2019-03-03T22:22:55.517Z,20.23
2019-03-03T22:25:23.958Z,18.35
2019-03-03T22:27:52.386Z,18.75
2019-03-03T22:30:20.890Z,19.65
2019-03-03T22:32:49.941Z,16.40
2019-03-03T22:35:18.414Z,17.10
2019-03-03T22:37:46.932Z,16.35
2019-03-03T22:40:23.078Z,15.60
2019-03-03T22:42:51.516Z,14.83
2019-03-03T22:45:20.441Z,15.15
2019-03-03T22:47:49.440Z,16.80
2019-03-03T22:50:19.239Z,18.48
2019-03-03T22:52:47.672Z,16.40
2019-03-03T22:55:17.860Z,15.88
2019-03-03T22:57:46.630Z,19.45
2019-03-03T23:00:44.136Z,14.03
2019-03-03T23:03:23.911Z,16.80
2019-03-03T23:06:22.414Z,18.05
2019-03-03T23:08:53.921Z,14.65
2019-03-03T23:11:28.492Z,12.60
2019-03-03T23:14:08.326Z,15.10
2019-03-03T23:16:59.401Z,16.35
2019-03-03T23:19:45.985Z,12.82
2019-03-03T23:22:29.358Z,15.28
2019-03-03T23:25:29.876Z,12.30
2019-03-03T23:27:58.313Z,14.75
2019-03-03T23:30:26.778Z,12.98
2019-03-03T23:32:55.274Z,12.78
2019-03-03T23:35:24.053Z,14.28
2019-03-03T23:37:52.509Z,13.70
2019-03-03T23:40:20.941Z,15.05
2019-03-03T23:42:49.377Z,13.98
2019-03-03T23:45:17.806Z,15.20
2019-03-03T23:47:46.304Z,14.80
2019-03-03T23:50:15.052Z,15.67
2019-03-03T23:52:43.822Z,14.70
2019-03-03T23:55:13.179Z,13.45
2019-03-03T23:57:41.616Z,14.45
